Time;durP1;ratioP1;P1;durP2;ratioP2;P2;SDS_P1;SDS_P2;PMS_P1;PMS_P2;Temp;Humidity;BMP_temperature;BMP_pressure;BME280_temperature;BME280_humidity;BME280_pressure;Samples;Min_cycle;Max_cycle;Signal;HPM_P1;HPM_P2
2021/11/15 00:00:45;;;;;;;;;13.50;10.25;;;;;22.20;43.28;102328.28;4972700;28;45407;-67
2021/11/15 00:03:13;;;;;;;;;10.00;10.00;;;;;22.23;42.65;102333.28;4972621;28;45321;-68
2021/11/15 00:05:38;;;;;;;;;12.25;11.25;;;;;22.18;42.69;102323.13;4974855;28;45517;-68
2021/11/15 00:08:04;;;;;;;;;12.00;11.50;;;;;22.21;43.26;102324.66;4969663;28;45519;-67
2021/11/15 00:10:29;;;;;;;;;10.00;8.75;;;;;22.22;43.18;102328.97;4972716;28;45476;-67
2021/11/15 00:12:55;;;;;;;;;9.00;9.00;;;;;22.20;43.04;102326.44;4972192;28;45442;-68
2021/11/15 00:15:21;;;;;;;;;11.00;9.75;;;;;22.23;43.27;102333.28;4973072;28;45551;-67
2021/11/15 00:17:47;;;;;;;;;15.00;11.25;;;;;22.22;43.25;102326.31;4974414;28;45500;-68
2021/11/15 00:20:14;;;;;;;;;11.00;10.25;;;;;22.21;42.78;102324.66;4972291;28;45604;-67
2021/11/15 00:22:39;;;;;;;;;10.00;8.75;;;;;22.21;43.18;102330.78;4972265;28;45506;-68
2021/11/15 00:25:06;;;;;;;;;9.50;9.50;;;;;22.21;42.78;102325.50;4971187;28;45681;-67
2021/11/15 00:27:32;;;;;;;;;9.25;9.25;;;;;22.22;42.79;102334.28;4972318;28;45338;-68
2021/11/15 00:30:00;;;;;;;;;9.00;9.00;;;;;22.20;43.20;102333.59;4972204;28;46302;-68
2021/11/15 00:32:27;;;;;;;;;10.75;9.75;;;;;22.19;42.88;102316.84;4973307;28;45287;-68
2021/11/15 00:34:53;;;;;;;;;13.25;11.25;;;;;22.21;42.73;102327.28;4972321;28;45381;-68
2021/11/15 00:37:19;;;;;;;;;11.25;10.75;;;;;22.21;42.81;102333.44;4972016;28;45420;-67
2021/11/15 00:39:44;;;;;;;;;9.50;9.00;;;;;22.16;43.12;102323.28;4972340;28;45348;-68
2021/11/15 00:42:13;;;;;;;;;10.00;9.00;;;;;22.15;43.20;102318.94;4971775;28;45539;-69
2021/11/15 00:44:39;;;;;;;;;10.50;10.50;;;;;22.21;42.71;102320.19;4973677;28;45543;-68
2021/11/15 00:47:04;;;;;;;;;11.00;10.25;;;;;22.16;42.67;102317.13;4971825;28;45453;-67
2021/11/15 00:49:30;;;;;;;;;9.50;8.75;;;;;22.20;42.91;102323.81;4971977;28;46310;-68
2021/11/15 00:51:55;;;;;;;;;11.75;9.25;;;;;22.18;43.14;102326.63;4972031;28;45396;-67
2021/11/15 00:54:21;;;;;;;;;10.75;9.25;;;;;22.17;42.73;102321.47;4972537;28;45421;-67
2021/11/15 00:56:46;;;;;;;;;8.50;8.50;;;;;22.13;42.64;102315.59;4974016;28;45428;-67
2021/11/15 00:59:12;;;;;;;;;14.50;9.25;;;;;22.17;43.14;102316.97;4971882;28;45573;-67
2021/11/15 01:01:37;;;;;;;;;12.25;8.25;;;;;22.15;42.75;102311.00;4972038;28;45443;-67
2021/11/15 01:04:02;;;;;;;;;9.25;9.25;;;;;22.17;43.12;102324.94;4970788;28;45489;-68
2021/11/15 01:06:28;;;;;;;;;11.00;10.00;;;;;22.16;43.21;102311.84;4972131;28;45442;-68
2021/11/15 01:08:53;;;;;;;;;11.25;10.00;;;;;22.13;42.95;102297.06;4973733;28;46687;-68
2021/11/15 01:11:19;;;;;;;;;13.00;10.75;;;;;22.14;43.25;102301.38;4971923;28;45440;-67
2021/11/15 01:13:45;;;;;;;;;9.50;9.00;;;;;22.15;43.07;102308.34;4971975;28;45470;-67
2021/11/15 01:16:10;;;;;;;;;12.25;9.75;;;;;22.15;43.00;102308.34;4971837;28;45518;-67
2021/11/15 01:18:41;;;;;;;;;10.50;10.50;;;;;22.16;42.65;102312.69;4971695;28;45535;-68
2021/11/15 01:21:08;;;;;;;;;11.50;8.75;;;;;22.16;43.14;102315.31;4971724;28;45569;-67
2021/11/15 01:23:33;;;;;;;;;12.00;9.75;;;;;22.14;43.14;102311.16;4972012;28;45349;-67
2021/11/15 01:25:58;;;;;;;;;10.25;10.25;;;;;21.99;42.41;102293.03;4969610;28;45416;-67
2021/11/15 01:28:24;;;;;;;;;12.75;11.25;;;;;22.12;42.59;102315.75;4971508;28;45362;-68
2021/11/15 01:30:49;;;;;;;;;12.50;10.00;;;;;22.14;43.02;102319.94;4971783;28;45300;-68
2021/11/15 01:33:14;;;;;;;;;10.50;10.50;;;;;22.12;42.92;102313.94;4971734;28;45335;-67
2021/11/15 01:35:40;;;;;;;;;12.00;10.00;;;;;22.14;42.47;102325.25;4973869;28;45296;-68
2021/11/15 01:38:05;;;;;;;;;11.75;11.75;;;;;22.12;42.60;102316.56;4971307;28;47122;-67
2021/11/15 01:40:32;;;;;;;;;9.00;9.00;;;;;22.15;42.49;102324.25;4971071;28;45458;-67
2021/11/15 01:42:59;;;;;;;;;12.50;9.50;;;;;22.12;42.87;102310.47;4970242;28;45392;-67
2021/11/15 01:45:26;;;;;;;;;11.00;9.75;;;;;22.15;42.29;102318.94;4971536;28;45355;-67
2021/11/15 01:47:54;;;;;;;;;10.00;9.00;;;;;22.01;42.98;102298.22;4973322;28;46252;-68
2021/11/15 01:50:20;;;;;;;;;11.00;9.50;;;;;22.17;42.99;102321.47;4971996;28;45446;-67
2021/11/15 01:52:46;;;;;;;;;11.50;10.25;;;;;22.15;42.86;102320.75;4971211;28;45508;-67
2021/11/15 01:55:13;;;;;;;;;12.25;10.00;;;;;22.14;42.25;102319.94;4971265;28;49158;-68
2021/11/15 01:57:41;;;;;;;;;12.50;10.75;;;;;22.07;42.93;102308.22;4971065;28;46706;-67
2021/11/15 02:00:13;;;;;;;;;10.50;9.00;;;;;22.15;42.95;102318.09;4971315;28;45765;-67
2021/11/15 02:02:40;;;;;;;;;11.75;11.75;;;;;22.14;42.52;102316.44;4972136;28;45341;-68
2021/11/15 02:05:06;;;;;;;;;10.75;9.00;;;;;22.13;42.47;102320.91;4969627;28;45597;-67
2021/11/15 02:07:31;;;;;;;;;10.50;8.00;;;;;22.11;42.58;102314.94;4970922;28;46511;-68
2021/11/15 02:09:56;;;;;;;;;9.75;8.50;;;;;22.11;43.05;102316.72;4970740;28;46873;-67
2021/11/15 02:12:25;;;;;;;;;11.75;11.00;;;;;22.09;42.63;102316.06;4971438;28;45402;-68
2021/11/15 02:14:51;;;;;;;;;8.75;8.75;;;;;22.10;42.29;102320.34;4969441;28;45427;-68
2021/11/15 02:17:16;;;;;;;;;11.75;11.75;;;;;22.12;42.37;102316.56;4970780;28;45441;-67
2021/11/15 02:19:43;;;;;;;;;9.00;9.00;;;;;22.13;42.89;102320.91;4970877;28;45938;-67
2021/11/15 02:22:09;;;;;;;;;8.50;7.75;;;;;22.13;42.76;102312.97;4969637;28;45446;-67
2021/11/15 02:24:34;;;;;;;;;10.50;10.50;;;;;22.09;42.55;102316.06;4970673;28;45604;-67
2021/11/15 02:27:00;;;;;;;;;9.50;9.50;;;;;22.13;42.63;102309.47;4970608;28;47834;-68
2021/11/15 02:29:25;;;;;;;;;11.00;10.25;;;;;22.10;42.78;102310.59;4971838;28;45426;-67
2021/11/15 02:31:50;;;;;;;;;12.00;12.00;;;;;22.11;42.34;102301.66;4970759;28;45546;-68
2021/11/15 02:34:16;;;;;;;;;10.75;10.50;;;;;22.12;42.27;102313.94;4970646;28;45511;-67
2021/11/15 02:36:41;;;;;;;;;9.50;9.50;;;;;22.06;42.14;102306.56;4970809;28;45367;-67
2021/11/15 02:39:07;;;;;;;;;10.75;10.75;;;;;22.11;42.74;102314.94;4970427;28;45339;-67
2021/11/15 02:41:32;;;;;;;;;9.75;9.00;;;;;22.05;42.75;102310.19;4970901;28;45448;-67
2021/11/15 02:44:01;;;;;;;;;11.00;9.00;;;;;22.10;42.36;102313.25;4968993;28;45316;-67
2021/11/15 02:46:28;;;;;;;;;13.25;11.25;;;;;22.07;42.90;102316.19;4970419;28;45631;-68
2021/11/15 02:48:54;;;;;;;;;11.50;10.50;;;;;22.10;42.74;102315.88;4970577;28;45268;-67
2021/11/15 02:51:20;;;;;;;;;9.00;9.00;;;;;22.12;42.09;102315.75;4970702;28;45390;-67
2021/11/15 02:53:45;;;;;;;;;11.00;9.50;;;;;22.09;42.22;102316.06;4972261;28;45442;-67
2021/11/15 02:56:11;;;;;;;;;13.00;11.00;;;;;22.09;42.70;102311.59;4970247;28;45465;-67
2021/11/15 02:58:36;;;;;;;;;11.25;10.75;;;;;22.11;42.40;102311.44;4970192;28;45344;-67
2021/11/15 03:01:11;;;;;;;;;9.50;9.50;;;;;22.12;42.15;102311.28;4969125;28;45441;-67
2021/11/15 03:03:38;;;;;;;;;10.25;10.25;;;;;22.12;42.69;102315.75;4970541;28;45439;-68
2021/11/15 03:06:04;;;;;;;;;8.50;8.50;;;;;22.10;42.78;102315.06;4970724;28;45980;-67
2021/11/15 03:08:29;;;;;;;;;12.25;10.75;;;;;22.06;42.29;102310.06;4972979;28;45381;-68
2021/11/15 03:11:00;;;;;;;;;9.75;8.50;;;;;22.11;42.25;102324.69;4973255;28;45508;-67
2021/11/15 03:13:29;;;;;;;;;8.75;7.75;;;;;22.09;42.71;102319.53;4973411;28;45438;-67
2021/11/15 03:15:55;;;;;;;;;10.00;9.75;;;;;22.10;42.71;102315.06;4973155;28;46330;-68
2021/11/15 03:18:26;;;;;;;;;9.75;9.75;;;;;22.09;42.68;102316.88;4957929;28;45394;-67
2021/11/15 03:21:02;;;;;;;;;10.00;10.00;;;;;22.09;42.28;102318.69;4971530;28;45517;-68
2021/11/15 03:23:29;;;;;;;;;9.50;8.50;;;;;21.99;42.09;102301.00;4972957;28;45597;-68
2021/11/15 03:25:56;;;;;;;;;10.50;10.50;;;;;22.06;42.66;102298.63;4973135;28;46451;-68
2021/11/15 03:28:33;;;;;;;;;12.50;10.00;;;;;22.09;42.19;102316.06;4973206;28;45903;-67
2021/11/15 03:31:06;;;;;;;;;11.50;9.00;;;;;22.10;42.10;102305.28;4973182;28;45386;-68
2021/11/15 03:33:33;;;;;;;;;7.00;7.00;;;;;22.09;42.06;102314.25;4973140;28;45374;-68
2021/11/15 03:35:59;;;;;;;;;11.75;10.25;;;;;22.07;42.26;102303.75;4973980;28;45505;-67
2021/11/15 03:38:25;;;;;;;;;12.25;8.75;;;;;22.11;42.79;102309.63;4973792;28;45680;-68
2021/11/15 03:40:51;;;;;;;;;9.50;9.00;;;;;22.12;42.43;102315.75;4971641;28;45328;-68
2021/11/15 03:43:16;;;;;;;;;9.50;9.50;;;;;22.10;42.43;102307.94;4972984;28;45465;-68
2021/11/15 03:45:42;;;;;;;;;11.75;11.00;;;;;22.10;42.20;102302.63;4973008;28;46121;-68
2021/11/15 03:48:09;;;;;;;;;10.25;9.00;;;;;22.10;41.98;102307.09;4972761;28;45568;-68
2021/11/15 03:50:35;;;;;;;;;11.75;10.25;;;;;22.10;42.55;102307.94;4974735;28;45278;-67
2021/11/15 03:53:07;;;;;;;;;11.50;11.25;;;;;22.04;42.02;102296.09;4972766;28;45500;-67
2021/11/15 03:55:33;;;;;;;;;11.50;9.25;;;;;22.07;41.96;102301.13;4972636;28;46447;-68
2021/11/15 03:57:58;;;;;;;;;11.00;10.00;;;;;22.06;42.06;102296.81;4972581;28;45547;-67
2021/11/15 04:00:27;;;;;;;;;8.75;8.00;;;;;22.11;41.88;102303.47;4971357;28;45474;-67
2021/11/15 04:02:57;;;;;;;;;10.50;10.00;;;;;22.05;42.04;102295.13;4974955;28;45398;-67
2021/11/15 04:05:30;;;;;;;;;13.00;10.75;;;;;22.10;42.43;102309.75;4972657;28;46295;-67
2021/11/15 04:07:56;;;;;;;;;9.00;9.00;;;;;22.06;41.79;102307.41;4972360;28;45430;-67
2021/11/15 04:10:28;;;;;;;;;15.25;12.00;;;;;22.07;41.67;102317.00;4972691;28;45447;-67
2021/11/15 04:12:56;;;;;;;;;10.75;9.25;;;;;22.07;42.07;102313.53;4972642;28;45482;-67
2021/11/15 04:15:22;;;;;;;;;10.75;10.25;;;;;22.10;42.08;102323.00;4957282;28;46177;-67
2021/11/15 04:17:49;;;;;;;;;11.50;9.25;;;;;22.01;41.67;102309.66;4974435;28;45466;-68
2021/11/15 04:20:18;;;;;;;;;11.75;11.25;;;;;22.06;42.05;102320.66;4969585;28;45588;-67
2021/11/15 04:22:43;;;;;;;;;9.25;9.25;;;;;22.10;42.00;102330.94;4972437;28;46862;-67
2021/11/15 04:25:10;;;;;;;;;11.50;9.00;;;;;22.10;42.36;102336.25;4972278;28;47056;-68
2021/11/15 04:27:36;;;;;;;;;8.50;8.00;;;;;22.07;41.74;102322.31;4972595;28;45520;-68
2021/11/15 04:30:05;;;;;;;;;11.25;11.00;;;;;22.09;42.27;102321.34;4973347;28;45419;-68
2021/11/15 04:32:30;;;;;;;;;10.50;10.50;;;;;22.07;42.21;102324.13;4974031;28;45293;-67
2021/11/15 04:34:56;;;;;;;;;10.75;10.75;;;;;22.10;42.44;102330.94;4971735;28;46701;-67
2021/11/15 04:37:22;;;;;;;;;10.50;10.00;;;;;22.08;42.13;102331.09;4972196;28;45295;-67
2021/11/15 04:39:47;;;;;;;;;8.50;8.50;;;;;22.08;41.80;102331.09;4969892;28;45497;-68
2021/11/15 04:42:13;;;;;;;;;10.50;10.00;;;;;21.94;42.07;102305.91;4972494;28;45444;-68
2021/11/15 04:44:38;;;;;;;;;12.00;11.00;;;;;22.05;42.15;102318.13;4974317;28;45565;-67
2021/11/15 04:47:04;;;;;;;;;9.50;8.25;;;;;22.05;41.97;102323.44;4972013;28;45605;-68
2021/11/15 04:49:29;;;;;;;;;10.00;8.00;;;;;22.10;42.13;102331.78;4971951;28;45491;-68
2021/11/15 04:51:55;;;;;;;;;8.00;8.00;;;;;22.07;42.04;102324.97;4972211;28;45479;-68
2021/11/15 04:54:21;;;;;;;;;8.75;8.75;;;;;22.06;41.80;102328.63;4956709;28;45380;-67
2021/11/15 04:56:46;;;;;;;;;12.00;10.25;;;;;21.92;42.19;102306.03;4974070;28;45238;-67
2021/11/15 04:59:12;;;;;;;;;11.75;10.50;;;;;22.09;41.73;102335.44;4970670;28;45344;-67
2021/11/15 05:01:38;;;;;;;;;12.75;11.00;;;;;22.07;41.83;102342.69;4972220;28;45568;-68
2021/11/15 05:04:04;;;;;;;;;10.75;9.00;;;;;22.06;41.82;102330.44;4971625;28;46265;-67
2021/11/15 05:06:29;;;;;;;;;10.50;10.00;;;;;22.00;42.20;102328.34;4971788;28;45393;-68
2021/11/15 05:08:55;;;;;;;;;10.25;10.25;;;;;22.05;42.16;102329.59;4973530;28;45388;-68
2021/11/15 05:11:20;;;;;;;;;9.25;9.25;;;;;22.05;42.34;102332.22;4972634;28;45536;-67
2021/11/15 05:13:46;;;;;;;;;8.25;7.50;;;;;22.09;42.04;102338.09;4971514;28;46038;-67
2021/11/15 05:16:11;;;;;;;;;12.75;11.00;;;;;22.06;42.08;102328.63;4971835;28;45513;-68
2021/11/15 05:18:37;;;;;;;;;8.25;8.25;;;;;22.07;42.21;102342.69;4970064;28;45474;-67
2021/11/15 05:21:02;;;;;;;;;13.25;10.50;;;;;22.06;41.77;102347.16;4972661;28;45284;-67
2021/11/15 05:23:28;;;;;;;;;10.50;10.25;;;;;22.05;41.91;102337.53;4972955;28;45781;-68
2021/11/15 05:25:54;;;;;;;;;11.00;10.00;;;;;22.05;41.43;102337.53;4971545;28;45452;-67
2021/11/15 05:28:19;;;;;;;;;10.00;9.25;;;;;22.06;42.23;102339.22;4971638;28;45382;-68
2021/11/15 05:30:45;;;;;;;;;9.75;9.75;;;;;22.07;41.76;102340.03;4971422;28;45480;-68
2021/11/15 05:33:10;;;;;;;;;11.75;9.00;;;;;22.04;41.69;102329.75;4970956;28;46377;-68
2021/11/15 05:35:36;;;;;;;;;11.00;8.00;;;;;22.04;42.00;102333.19;4973714;28;45477;-67
2021/11/15 05:38:02;;;;;;;;;9.00;9.00;;;;;22.01;42.13;102327.38;4969266;28;45440;-68
2021/11/15 05:40:27;;;;;;;;;10.00;9.25;;;;;22.07;41.99;102334.72;4983470;28;45526;-67
2021/11/15 05:42:55;;;;;;;;;10.50;10.50;;;;;22.09;41.68;102331.94;4957439;28;46057;-67
2021/11/15 05:45:22;;;;;;;;;10.50;9.00;;;;;22.05;41.73;102320.78;4971466;28;45296;-67
2021/11/15 05:47:48;;;;;;;;;9.25;9.25;;;;;22.06;41.62;102325.13;4973200;28;45446;-68
2021/11/15 05:50:15;;;;;;;;;9.25;9.25;;;;;21.91;41.68;102296.41;4971404;28;45362;-67
2021/11/15 05:52:42;;;;;;;;;12.25;10.00;;;;;22.06;42.06;102327.78;4971155;28;45565;-68
2021/11/15 05:55:10;;;;;;;;;9.00;7.75;;;;;22.10;41.87;102333.59;4971167;28;45578;-67
2021/11/15 05:57:35;;;;;;;;;8.75;8.75;;;;;22.05;41.66;102326.94;4969692;28;45319;-67
2021/11/15 06:00:02;;;;;;;;;10.50;8.75;;;;;21.95;41.96;102302.28;4972235;28;45326;-70
2021/11/15 06:02:28;;;;;;;;;10.75;10.75;;;;;22.11;42.03;102338.78;4972048;28;47203;-68
2021/11/15 06:04:53;;;;;;;;;12.00;11.00;;;;;22.05;41.43;102328.75;4971006;28;45216;-67
2021/11/15 06:07:18;;;;;;;;;13.75;10.50;;;;;22.11;41.93;102340.59;4970153;28;45222;-67
2021/11/15 06:09:44;;;;;;;;;8.00;8.00;;;;;22.04;41.98;102327.91;4971198;28;45524;-67
2021/11/15 06:12:09;;;;;;;;;10.50;8.75;;;;;22.06;41.58;102327.78;4953690;28;45544;-67
2021/11/15 06:14:35;;;;;;;;;9.50;9.00;;;;;22.03;41.50;102328.06;4974549;28;45294;-67
2021/11/15 06:17:01;;;;;;;;;9.75;9.50;;;;;22.07;41.83;102338.22;4969293;28;45580;-67
2021/11/15 06:19:26;;;;;;;;;11.50;10.00;;;;;22.06;41.91;102335.72;4970711;28;45505;-66
2021/11/15 06:21:51;;;;;;;;;8.75;8.75;;;;;22.08;41.48;102333.75;4970878;28;45997;-67
2021/11/15 06:24:17;;;;;;;;;10.50;9.00;;;;;22.03;41.51;102328.91;4970970;28;45403;-67
2021/11/15 06:26:42;;;;;;;;;9.50;9.25;;;;;22.03;41.68;102330.72;4973129;28;45424;-67
2021/11/15 06:29:08;;;;;;;;;10.00;10.00;;;;;22.06;41.53;102341.03;4970751;28;45450;-68
2021/11/15 06:31:33;;;;;;;;;11.75;10.00;;;;;22.05;41.53;102340.19;4970237;28;46023;-66
2021/11/15 06:33:59;;;;;;;;;11.00;9.25;;;;;22.06;41.62;102341.03;4970352;28;45447;-66
2021/11/15 06:36:25;;;;;;;;;9.75;9.75;;;;;22.06;41.29;102336.56;4969430;28;45446;-66
2021/11/15 06:38:53;;;;;;;;;9.25;9.00;;;;;22.07;41.57;102351.47;4971532;28;45470;-65
2021/11/15 06:41:20;;;;;;;;;9.50;9.50;;;;;22.06;42.00;102348.97;4969119;28;48932;-65
2021/11/15 06:43:45;;;;;;;;;11.50;8.50;;;;;22.07;42.22;102351.47;4972316;28;45596;-66
2021/11/15 06:46:11;;;;;;;;;9.75;9.00;;;;;22.06;41.79;102351.63;4975059;27;45646;-65
2021/11/15 06:48:42;;;;;;;;;7.50;7.50;;;;;22.05;41.88;102356.09;4973563;28;45332;-65
2021/11/15 06:51:10;;;;;;;;;8.50;8.50;;;;;22.04;41.82;102353.59;4973589;28;46528;-65
2021/11/15 06:53:36;;;;;;;;;9.50;8.50;;;;;22.05;41.89;102360.53;4973432;28;45505;-65
2021/11/15 06:56:03;;;;;;;;;9.00;8.00;;;;;22.04;42.31;102362.34;4972048;28;45394;-65
2021/11/15 06:58:28;;;;;;;;;11.00;9.00;;;;;22.05;42.09;102360.53;4973003;28;45506;-65
2021/11/15 07:00:54;;;;;;;;;9.50;8.00;;;;;22.06;42.43;102363.06;4972519;28;46425;-65
2021/11/15 07:03:19;;;;;;;;;10.00;8.50;;;;;22.00;42.28;102357.50;4974273;28;45468;-65
2021/11/15 07:05:45;;;;;;;;;10.25;9.75;;;;;22.07;42.04;102366.53;4975496;28;45490;-65
2021/11/15 07:08:10;;;;;;;;;9.75;8.00;;;;;22.06;42.34;102368.38;4972498;28;45325;-66
2021/11/15 07:10:37;;;;;;;;;10.00;9.50;;;;;22.04;42.52;102364.19;4972942;28;46290;-66
2021/11/15 07:13:03;;;;;;;;;8.50;8.50;;;;;22.06;42.43;102376.31;4973225;28;45415;-66
2021/11/15 07:15:29;;;;;;;;;8.00;8.00;;;;;22.09;42.26;102383.16;4971691;28;45366;-63
2021/11/15 07:17:54;;;;;;;;;10.25;10.00;;;;;22.11;41.97;102380.34;4975052;28;45358;-65
2021/11/15 07:20:20;;;;;;;;;10.00;10.00;;;;;22.04;41.98;102367.66;4973218;28;47282;-64
2021/11/15 07:22:48;;;;;;;;;9.75;9.50;;;;;22.09;41.80;102385.81;4973194;28;45442;-65
2021/11/15 07:25:15;;;;;;;;;8.50;8.00;;;;;22.10;41.87;102382.16;4973147;28;45319;-65
2021/11/15 07:27:40;;;;;;;;;8.50;8.50;;;;;22.05;42.31;102377.28;4972887;28;45253;-65
2021/11/15 07:30:07;;;;;;;;;11.00;9.75;;;;;22.06;42.04;102378.13;4973306;28;46087;-65
2021/11/15 07:32:32;;;;;;;;;8.00;8.00;;;;;22.10;41.90;102394.56;4974609;28;45284;-65
2021/11/15 07:34:58;;;;;;;;;8.00;7.50;;;;;22.11;42.13;102394.44;4971618;28;45253;-65
2021/11/15 07:37:23;;;;;;;;;8.75;8.25;;;;;22.05;41.98;102382.59;4972981;28;45261;-65
2021/11/15 07:39:49;;;;;;;;;9.50;9.50;;;;;22.09;42.34;102391.09;4972866;28;46386;-65
2021/11/15 07:42:16;;;;;;;;;9.50;9.50;;;;;22.12;41.82;102392.63;4972666;28;45351;-65
2021/11/15 07:44:42;;;;;;;;;9.00;8.25;;;;;22.09;41.70;102385.81;4975071;28;45388;-65
2021/11/15 07:47:08;;;;;;;;;11.00;11.00;;;;;22.06;41.99;102384.28;4972520;28;45454;-64
2021/11/15 07:49:34;;;;;;;;;10.00;10.00;;;;;22.10;41.74;102386.63;4991142;28;46165;-65
2021/11/15 07:52:00;;;;;;;;;8.25;8.25;;;;;22.07;41.99;102393.03;4972462;28;45489;-65
2021/11/15 07:54:26;;;;;;;;;8.75;8.75;;;;;22.07;41.68;102390.38;4971129;28;45421;-65
2021/11/15 07:56:52;;;;;;;;;7.75;7.25;;;;;22.09;41.86;102391.09;4972864;28;45554;-64
2021/11/15 07:59:17;;;;;;;;;10.75;8.00;;;;;22.07;42.30;102388.59;4972428;28;45478;-65
2021/11/15 08:01:43;;;;;;;;;8.75;8.75;;;;;21.91;42.02;102367.16;4972723;28;45453;-65
2021/11/15 08:04:08;;;;;;;;;8.25;7.75;;;;;22.09;42.24;102399.06;4972545;28;45355;-64
2021/11/15 08:06:34;;;;;;;;;8.50;8.50;;;;;22.09;41.94;102411.47;4972897;28;45429;-65
2021/11/15 08:08:59;;;;;;;;;7.75;7.75;;;;;22.06;42.21;102402.84;4973955;28;46051;-65
2021/11/15 08:11:30;;;;;;;;;9.00;8.75;;;;;22.07;42.04;102406.28;4972907;28;45365;-64
2021/11/15 08:13:55;;;;;;;;;9.00;9.00;;;;;22.09;42.19;102411.47;4971034;28;45492;-65
2021/11/15 08:16:21;;;;;;;;;7.75;7.00;;;;;22.05;42.07;102411.75;4972521;28;45397;-64
2021/11/15 08:18:47;;;;;;;;;8.75;8.50;;;;;22.06;41.83;102410.78;4972477;28;46205;-65
2021/11/15 08:21:13;;;;;;;;;9.00;7.00;;;;;22.04;42.08;102404.75;4972152;28;45244;-65
2021/11/15 08:23:42;;;;;;;;;9.50;9.50;;;;;22.06;42.06;102409.94;4974554;28;45291;-65
2021/11/15 08:26:27;;;;;;;;;7.50;6.75;;;;;22.03;42.21;102400.47;4973749;28;45376;-65
2021/11/15 08:28:54;;;;;;;;;8.50;8.00;;;;;22.06;41.99;102412.59;4972295;28;45378;-65
2021/11/15 08:31:20;;;;;;;;;9.00;7.25;;;;;22.05;42.23;102419.69;4971301;28;45420;-65
2021/11/15 08:33:45;;;;;;;;;10.50;9.50;;;;;22.04;42.15;102404.75;4970764;28;45504;-65
2021/11/15 08:36:11;;;;;;;;;8.00;7.00;;;;;22.05;41.71;102425.00;4972416;28;45404;-65
2021/11/15 08:38:49;;;;;;;;;9.00;9.00;;;;;22.05;42.10;102422.34;4974341;28;45378;-65
2021/11/15 08:41:18;;;;;;;;;9.25;8.25;;;;;22.05;42.05;102416.22;4970519;28;45581;-65
2021/11/15 08:43:45;;;;;;;;;10.00;9.00;;;;;22.06;42.01;102417.88;4981228;28;45301;-65
2021/11/15 08:46:15;;;;;;;;;11.50;10.00;;;;;22.06;41.60;102420.53;4972227;28;45324;-65
2021/11/15 08:48:42;;;;;;;;;11.75;10.75;;;;;22.05;41.97;102409.09;4971963;28;47293;-65
2021/11/15 08:51:11;;;;;;;;;9.00;9.00;;;;;22.04;42.13;102414.56;4971676;28;45351;-65
2021/11/15 08:53:37;;;;;;;;;8.25;8.25;;;;;22.03;41.54;102418.16;4972506;28;45409;-65
2021/11/15 08:56:03;;;;;;;;;14.25;9.00;;;;;22.00;41.63;102403.38;4971721;28;45359;-64
2021/11/15 08:58:28;;;;;;;;;12.00;9.75;;;;;22.07;41.46;102415.09;4971694;28;45320;-65
2021/11/15 09:00:54;;;;;;;;;9.50;9.50;;;;;22.08;42.02;102429.19;4971751;28;45320;-65
2021/11/15 09:03:19;;;;;;;;;7.25;7.00;;;;;22.07;41.43;102420.38;4972055;28;45407;-65
2021/11/15 09:05:46;;;;;;;;;9.00;8.75;;;;;22.07;42.02;102428.34;4973141;28;50425;-65
2021/11/15 09:08:12;;;;;;;;;10.00;10.00;;;;;22.03;41.85;102426.97;4971739;28;46609;-65
2021/11/15 09:10:38;;;;;;;;;10.75;9.00;;;;;22.10;41.98;102437.81;4971332;28;45626;-65
2021/11/15 09:13:03;;;;;;;;;9.00;9.00;;;;;21.92;41.39;102406.75;4970542;28;45498;-65
2021/11/15 09:15:29;;;;;;;;;11.00;11.00;;;;;22.06;41.50;102433.78;4971963;28;45287;-65
2021/11/15 09:17:54;;;;;;;;;7.00;7.00;;;;;22.02;41.26;102419.13;4973430;28;46564;-66
2021/11/15 09:20:20;;;;;;;;;8.25;8.25;;;;;22.04;41.45;102425.16;4972151;28;45640;-65
2021/11/15 09:22:45;;;;;;;;;9.75;7.25;;;;;22.06;41.52;102418.72;4971679;28;45422;-65
2021/11/15 09:25:11;;;;;;;;;11.25;9.00;;;;;22.00;41.69;102415.78;4971649;28;45429;-66
2021/11/15 09:27:41;;;;;;;;;11.75;10.25;;;;;22.06;41.38;102431.16;4971732;28;46325;-65
2021/11/15 09:30:10;;;;;;;;;11.00;10.00;;;;;22.04;41.33;102433.09;4972509;28;45660;-65
2021/11/15 09:32:36;;;;;;;;;9.75;9.75;;;;;22.05;41.47;102435.59;4971830;28;45417;-65
2021/11/15 09:35:02;;;;;;;;;11.25;10.25;;;;;22.03;41.51;102426.97;4971486;28;45513;-65
2021/11/15 09:37:28;;;;;;;;;9.00;8.75;;;;;22.04;41.79;102422.50;4971215;28;47422;-64
2021/11/15 09:39:55;;;;;;;;;9.75;7.75;;;;;22.05;41.36;102422.34;4971035;28;45285;-66
2021/11/15 09:42:22;;;;;;;;;11.25;9.50;;;;;22.05;41.82;102422.34;4971766;28;45442;-65
2021/11/15 09:44:48;;;;;;;;;10.75;10.00;;;;;22.05;41.27;102405.59;4973490;28;45640;-65
2021/11/15 09:47:13;;;;;;;;;10.00;8.75;;;;;22.03;41.66;102408.41;4970974;28;46471;-65
2021/11/15 09:49:39;;;;;;;;;9.75;8.00;;;;;22.05;41.52;102410.91;4971251;28;45423;-66
2021/11/15 09:52:06;;;;;;;;;8.25;8.25;;;;;22.05;41.28;102408.25;4969864;28;45924;-65
2021/11/15 09:54:32;;;;;;;;;9.00;8.00;;;;;22.05;41.21;102408.25;4971251;28;45562;-66
2021/11/15 09:56:57;;;;;;;;;12.25;9.25;;;;;22.02;41.77;102403.22;4972581;28;46533;-66
2021/11/15 09:59:28;;;;;;;;;8.25;8.25;;;;;22.06;41.41;102407.28;4971986;28;45489;-64
2021/11/15 10:01:54;;;;;;;;;8.25;8.25;;;;;22.03;41.33;102407.56;4971283;28;45343;-65
2021/11/15 10:04:21;;;;;;;;;8.75;7.00;;;;;22.01;41.56;102413.03;4971191;28;45363;-65
2021/11/15 10:06:49;;;;;;;;;9.00;8.75;;;;;22.05;41.50;102416.22;4970915;28;45404;-65
2021/11/15 10:09:27;;;;;;;;;8.00;7.25;;;;;22.06;41.41;102428.50;4970884;28;45491;-65
2021/11/15 10:11:54;;;;;;;;;8.75;8.25;;;;;22.05;41.95;102438.25;4969429;28;45513;-64
2021/11/15 10:14:21;;;;;;;;;10.75;10.00;;;;;22.05;41.56;102427.66;4969994;28;45455;-65
2021/11/15 10:17:01;;;;;;;;;12.00;11.00;;;;;22.03;41.48;102428.78;4970758;28;46096;-66
2021/11/15 10:19:32;;;;;;;;;10.00;10.00;;;;;22.05;41.51;102440.91;4973367;28;45600;-66
2021/11/15 10:22:00;;;;;;;;;9.75;9.50;;;;;22.06;41.63;102437.28;4973610;28;45431;-66
2021/11/15 10:24:46;;;;;;;;;8.25;7.00;;;;;21.98;41.18;102418.59;4974009;28;45469;-64
2021/11/15 10:27:17;;;;;;;;;10.00;10.00;;;;;22.06;41.33;102442.59;4973687;28;46195;-65
2021/11/15 10:29:49;;;;;;;;;7.75;7.75;;;;;22.05;41.61;102434.75;4975934;28;45637;-65
2021/11/15 10:32:22;;;;;;;;;9.50;8.50;;;;;22.05;41.12;102430.31;4972182;28;45360;-65
2021/11/15 10:34:54;;;;;;;;;9.00;7.75;;;;;22.05;41.14;102427.66;4973692;28;45602;-65
2021/11/15 10:37:20;;;;;;;;;8.75;8.75;;;;;22.06;41.41;102431.16;4972994;28;47887;-65
2021/11/15 10:39:48;;;;;;;;;9.00;8.75;;;;;22.05;41.29;102440.06;4974844;28;45560;-65
2021/11/15 10:42:16;;;;;;;;;11.25;9.00;;;;;22.05;41.57;102434.75;4973574;28;45550;-65
2021/11/15 10:44:51;;;;;;;;;9.25;8.50;;;;;22.05;41.47;102438.25;4975708;28;45290;-65
2021/11/15 10:47:18;;;;;;;;;11.25;10.50;;;;;22.06;41.41;102433.78;4973158;28;47447;-65
2021/11/15 10:49:45;;;;;;;;;8.75;7.25;;;;;22.05;41.06;102429.47;4972080;28;45526;-65
2021/11/15 10:52:14;;;;;;;;;7.00;6.75;;;;;22.06;41.31;102439.94;4973163;28;45557;-65
2021/11/15 10:54:54;;;;;;;;;8.50;7.75;;;;;22.05;41.09;102429.47;4973486;28;45475;-65
2021/11/15 10:57:31;;;;;;;;;8.00;8.00;;;;;22.00;41.11;102421.94;4973165;28;46180;-65
2021/11/15 11:00:10;;;;;;;;;9.50;9.00;;;;;22.04;41.57;102428.63;4971432;28;45434;-65
2021/11/15 11:02:51;;;;;;;;;8.50;8.50;;;;;22.05;41.29;102424.16;4973579;28;45260;-64
2021/11/15 11:05:27;;;;;;;;;7.25;6.00;;;;;22.04;41.57;102422.50;4972810;28;45971;-65
2021/11/15 11:08:06;;;;;;;;;8.00;8.00;;;;;22.03;41.46;102421.66;4973132;28;45721;-65
2021/11/15 11:10:39;;;;;;;;;7.50;7.25;;;;;22.02;41.38;102405.88;4971536;28;45382;-66
2021/11/15 11:13:05;;;;;;;;;10.50;9.25;;;;;22.03;41.06;102407.56;4973276;28;45408;-65
2021/11/15 11:15:38;;;;;;;;;10.25;8.75;;;;;22.02;41.30;102406.72;4973469;28;45455;-65
2021/11/15 11:26:27;;;;;;;;;8.00;7.00;;;;;22.03;41.58;102397.81;4973744;28;45501;-64